sensor_id;sensor_type;location;lat;lon;timestamp;pressure;altitude;pressure_sealevel;temperature;humidity
68456;BME280;55437;55.046;38.838;2023-02-12T00:02:26;98566.25;;;1.25;70.45
68456;BME280;55437;55.046;38.838;2023-02-12T00:04:52;98565.41;;;1.26;70.35
68456;BME280;55437;55.046;38.838;2023-02-12T00:07:17;98562.88;;;1.25;70.32
68456;BME280;55437;55.046;38.838;2023-02-12T00:09:43;98567.84;;;1.32;70.19
68456;BME280;55437;55.046;38.838;2023-02-12T00:12:09;98569.38;;;1.42;70.19
68456;BME280;55437;55.046;38.838;2023-02-12T00:14:37;98557.44;;;1.49;70.21
68456;BME280;55437;55.046;38.838;2023-02-12T00:17:05;98555.63;;;1.57;70.02
68456;BME280;55437;55.046;38.838;2023-02-12T00:19:30;98555.50;;;1.66;69.90
68456;BME280;55437;55.046;38.838;2023-02-12T00:21:56;98557.19;;;1.66;69.66
68456;BME280;55437;55.046;38.838;2023-02-12T00:24:22;98548.75;;;1.65;69.84
68456;BME280;55437;55.046;38.838;2023-02-12T00:26:48;98551.34;;;1.61;69.83
68456;BME280;55437;55.046;38.838;2023-02-12T00:29:15;98547.03;;;1.67;69.80
68456;BME280;55437;55.046;38.838;2023-02-12T00:31:41;98543.78;;;1.59;69.79
68456;BME280;55437;55.046;38.838;2023-02-12T00:34:08;98542.09;;;1.60;69.79
68456;BME280;55437;55.046;38.838;2023-02-12T00:36:34;98542.78;;;1.69;69.84
68456;BME280;55437;55.046;38.838;2023-02-12T00:39:00;98543.59;;;1.71;69.48
68456;BME280;55437;55.046;38.838;2023-02-12T00:41:26;98536.81;;;1.72;69.98
68456;BME280;55437;55.046;38.838;2023-02-12T00:43:52;98546.88;;;1.76;69.66
68456;BME280;55437;55.046;38.838;2023-02-12T00:46:18;98537.47;;;1.83;69.64
68456;BME280;55437;55.046;38.838;2023-02-12T00:48:46;98535.72;;;1.87;69.34
68456;BME280;55437;55.046;38.838;2023-02-12T00:51:12;98540.72;;;1.91;69.43
68456;BME280;55437;55.046;38.838;2023-02-12T00:53:37;98539.91;;;1.89;69.27
68456;BME280;55437;55.046;38.838;2023-02-12T00:56:04;98533.19;;;1.87;69.26
68456;BME280;55437;55.046;38.838;2023-02-12T00:58:29;98540.84;;;1.82;69.18
68456;BME280;55437;55.046;38.838;2023-02-12T01:00:55;98538.50;;;1.73;69.30
68456;BME280;55437;55.046;38.838;2023-02-12T01:03:22;98543.78;;;1.59;69.71
68456;BME280;55437;55.046;38.838;2023-02-12T01:05:48;98535.31;;;1.62;69.87
68456;BME280;55437;55.046;38.838;2023-02-12T01:08:14;98547.81;;;1.71;69.80
68456;BME280;55437;55.046;38.838;2023-02-12T01:10:41;98538.31;;;1.84;69.28
68456;BME280;55437;55.046;38.838;2023-02-12T01:13:13;98550.81;;;1.93;69.16
68456;BME280;55437;55.046;38.838;2023-02-12T01:15:39;98539.78;;;1.95;69.00
68456;BME280;55437;55.046;38.838;2023-02-12T01:18:05;98543.09;;;1.99;69.08
68456;BME280;55437;55.046;38.838;2023-02-12T01:20:31;98533.03;;;1.96;69.09
68456;BME280;55437;55.046;38.838;2023-02-12T01:22:57;98527.22;;;1.91;69.19
68456;BME280;55437;55.046;38.838;2023-02-12T01:25:23;98542.38;;;1.92;69.08
68456;BME280;55437;55.046;38.838;2023-02-12T01:27:52;98549.84;;;1.98;68.93
68456;BME280;55437;55.046;38.838;2023-02-12T01:30:17;98537.88;;;2.06;69.07
68456;BME280;55437;55.046;38.838;2023-02-12T01:32:46;98552.09;;;2.15;68.90
68456;BME280;55437;55.046;38.838;2023-02-12T01:35:30;98555.34;;;2.20;68.31
68456;BME280;55437;55.046;38.838;2023-02-12T01:37:56;98558.94;;;2.08;68.72
68456;BME280;55437;55.046;38.838;2023-02-12T01:40:24;98555.78;;;1.97;68.68
68456;BME280;55437;55.046;38.838;2023-02-12T01:42:50;98552.41;;;1.97;68.91
68456;BME280;55437;55.046;38.838;2023-02-12T01:47:43;98548.72;;;2.14;68.87
68456;BME280;55437;55.046;38.838;2023-02-12T01:50:12;98557.81;;;2.25;68.52
68456;BME280;55437;55.046;38.838;2023-02-12T01:52:45;98556.78;;;2.33;68.44
68456;BME280;55437;55.046;38.838;2023-02-12T01:55:14;98553.47;;;2.30;68.33
68456;BME280;55437;55.046;38.838;2023-02-12T01:57:43;98562.94;;;2.22;68.44
68456;BME280;55437;55.046;38.838;2023-02-12T02:00:14;98549.59;;;2.12;68.68
68456;BME280;55437;55.046;38.838;2023-02-12T02:03:00;98561.34;;;2.16;68.33
68456;BME280;55437;55.046;38.838;2023-02-12T02:05:51;98554.41;;;2.26;68.67
68456;BME280;55437;55.046;38.838;2023-02-12T02:08:19;98562.13;;;2.18;68.44
68456;BME280;55437;55.046;38.838;2023-02-12T02:10:44;98558.09;;;2.09;68.70
68456;BME280;55437;55.046;38.838;2023-02-12T02:13:13;98571.50;;;2.14;68.67
68456;BME280;55437;55.046;38.838;2023-02-12T02:16:24;98558.72;;;2.21;68.16
68456;BME280;55437;55.046;38.838;2023-02-12T02:19:05;98569.03;;;2.11;68.64
68456;BME280;55437;55.046;38.838;2023-02-12T02:22:01;98575.69;;;2.17;68.95
68456;BME280;55437;55.046;38.838;2023-02-12T02:27:31;98584.56;;;2.39;68.06
68456;BME280;55437;55.046;38.838;2023-02-12T02:30:19;98584.66;;;2.33;68.47
68456;BME280;55437;55.046;38.838;2023-02-12T02:33:03;98589.03;;;2.25;68.55
68456;BME280;55437;55.046;38.838;2023-02-12T02:38:17;98599.75;;;2.39;68.90
68456;BME280;55437;55.046;38.838;2023-02-12T02:41:07;98607.34;;;2.39;68.81
68456;BME280;55437;55.046;38.838;2023-02-12T02:43:44;98602.94;;;2.49;68.38
68456;BME280;55437;55.046;38.838;2023-02-12T02:46:16;98613.75;;;2.56;68.38
68456;BME280;55437;55.046;38.838;2023-02-12T02:48:55;98603.53;;;2.62;68.65
68456;BME280;55437;55.046;38.838;2023-02-12T02:51:35;98607.09;;;2.53;68.47
68456;BME280;55437;55.046;38.838;2023-02-12T02:54:26;98613.09;;;2.47;68.27
68456;BME280;55437;55.046;38.838;2023-02-12T02:57:02;98622.56;;;2.38;68.68
68456;BME280;55437;55.046;38.838;2023-02-12T02:59:35;98626.19;;;2.25;68.99
68456;BME280;55437;55.046;38.838;2023-02-12T03:02:25;98623.75;;;2.18;69.21
68456;BME280;55437;55.046;38.838;2023-02-12T03:04:57;98623.75;;;2.18;68.88
68456;BME280;55437;55.046;38.838;2023-02-12T03:07:28;98639.06;;;2.12;69.25
68456;BME280;55437;55.046;38.838;2023-02-12T03:12:36;98648.50;;;2.04;69.38
68456;BME280;55437;55.046;38.838;2023-02-12T03:15:34;98653.09;;;1.81;69.88
68456;BME280;55437;55.046;38.838;2023-02-12T03:18:00;98669.22;;;1.72;70.26
68456;BME280;55437;55.046;38.838;2023-02-12T03:20:35;98663.41;;;1.69;70.50
68456;BME280;55437;55.046;38.838;2023-02-12T03:23:18;98677.03;;;1.59;70.68
68456;BME280;55437;55.046;38.838;2023-02-12T03:25:52;98680.38;;;1.61;70.86
68456;BME280;55437;55.046;38.838;2023-02-12T03:28:30;98683.00;;;1.55;71.04
68456;BME280;55437;55.046;38.838;2023-02-12T03:34:10;98700.88;;;1.44;71.08
68456;BME280;55437;55.046;38.838;2023-02-12T03:39:15;98713.78;;;1.21;71.53
68456;BME280;55437;55.046;38.838;2023-02-12T03:41:56;98716.44;;;1.12;71.71
68456;BME280;55437;55.046;38.838;2023-02-12T03:44:47;98734.19;;;1.07;71.63
68456;BME280;55437;55.046;38.838;2023-02-12T03:47:35;98740.38;;;0.81;73.38
68456;BME280;55437;55.046;38.838;2023-02-12T03:50:12;98737.97;;;0.71;74.48
68456;BME280;55437;55.046;38.838;2023-02-12T03:52:41;98755.59;;;0.75;74.71
68456;BME280;55437;55.046;38.838;2023-02-12T03:55:08;98745.59;;;0.64;74.18
68456;BME280;55437;55.046;38.838;2023-02-12T03:57:44;98755.66;;;0.71;73.57
68456;BME280;55437;55.046;38.838;2023-02-12T04:00:17;98749.81;;;0.63;73.51
68456;BME280;55437;55.046;38.838;2023-02-12T04:02:46;98757.56;;;0.48;73.58
68456;BME280;55437;55.046;38.838;2023-02-12T04:05:21;98766.84;;;0.45;73.82
68456;BME280;55437;55.046;38.838;2023-02-12T04:07:48;98770.94;;;0.53;73.82
68456;BME280;55437;55.046;38.838;2023-02-12T04:10:15;98771.81;;;0.52;73.46
68456;BME280;55437;55.046;38.838;2023-02-12T04:12:56;98765.13;;;0.47;73.32
68456;BME280;55437;55.046;38.838;2023-02-12T04:15:34;98780.31;;;0.41;72.98
68456;BME280;55437;55.046;38.838;2023-02-12T04:18:08;98785.44;;;0.34;72.78
68456;BME280;55437;55.046;38.838;2023-02-12T04:25:51;98804.97;;;0.07;73.39
68456;BME280;55437;55.046;38.838;2023-02-12T04:33:48;98824.31;;;0.11;74.81
68456;BME280;55437;55.046;38.838;2023-02-12T04:36:24;98833.47;;;0.24;74.51
68456;BME280;55437;55.046;38.838;2023-02-12T04:38:57;98837.72;;;0.20;74.16
68456;BME280;55437;55.046;38.838;2023-02-12T04:41:25;98839.41;;;0.18;73.71
68456;BME280;55437;55.046;38.838;2023-02-12T04:43:51;98843.66;;;0.10;73.61
68456;BME280;55437;55.046;38.838;2023-02-12T04:46:17;98855.44;;;0.10;73.59
68456;BME280;55437;55.046;38.838;2023-02-12T04:49:03;98868.06;;;0.10;73.02
68456;BME280;55437;55.046;38.838;2023-02-12T04:51:30;98867.22;;;0.05;73.03
68456;BME280;55437;55.046;38.838;2023-02-12T04:53:55;98875.63;;;0.07;72.69
68456;BME280;55437;55.046;38.838;2023-02-12T04:56:21;98879.84;;;0.08;72.44
68456;BME280;55437;55.046;38.838;2023-02-12T04:58:46;98893.31;;;0.07;72.39
68456;BME280;55437;55.046;38.838;2023-02-12T05:01:33;98886.56;;;0.07;72.33
68456;BME280;55437;55.046;38.838;2023-02-12T05:04:00;98895.88;;;-0.01;72.49
68456;BME280;55437;55.046;38.838;2023-02-12T05:06:26;98909.28;;;0.04;72.72
68456;BME280;55437;55.046;38.838;2023-02-12T05:08:52;98916.88;;;0.03;72.98
68456;BME280;55437;55.046;38.838;2023-02-12T05:11:18;98928.69;;;-0.06;72.94
68456;BME280;55437;55.046;38.838;2023-02-12T05:13:48;98932.91;;;-0.09;73.17
68456;BME280;55437;55.046;38.838;2023-02-12T05:16:15;98947.19;;;-0.04;73.31
68456;BME280;55437;55.046;38.838;2023-02-12T05:18:41;98949.66;;;0.04;72.94
68456;BME280;55437;55.046;38.838;2023-02-12T05:21:07;98938.72;;;0.05;72.49
68456;BME280;55437;55.046;38.838;2023-02-12T05:23:34;98958.97;;;-0.06;72.20
68456;BME280;55437;55.046;38.838;2023-02-12T05:26:05;98959.84;;;-0.16;72.17
68456;BME280;55437;55.046;38.838;2023-02-12T05:28:31;98964.94;;;-0.25;73.06
68456;BME280;55437;55.046;38.838;2023-02-12T05:31:02;98962.41;;;-0.32;73.14
68456;BME280;55437;55.046;38.838;2023-02-12T05:33:28;98975.03;;;-0.42;73.55
68456;BME280;55437;55.046;38.838;2023-02-12T05:35:54;98966.63;;;-0.45;73.25
68456;BME280;55437;55.046;38.838;2023-02-12T05:38:20;98972.50;;;-0.36;73.24
68456;BME280;55437;55.046;38.838;2023-02-12T05:40:46;98989.31;;;-0.34;72.72
68456;BME280;55437;55.046;38.838;2023-02-12T05:43:13;98992.66;;;-0.34;72.28
68456;BME280;55437;55.046;38.838;2023-02-12T05:45:39;99003.63;;;-0.37;72.02
68456;BME280;55437;55.046;38.838;2023-02-12T05:48:06;99015.38;;;-0.43;72.10
68456;BME280;55437;55.046;38.838;2023-02-12T05:50:34;99014.53;;;-0.41;72.03
68456;BME280;55437;55.046;38.838;2023-02-12T05:53:06;99033.03;;;-0.48;72.06
68456;BME280;55437;55.046;38.838;2023-02-12T05:55:32;99026.31;;;-0.40;71.83
68456;BME280;55437;55.046;38.838;2023-02-12T05:57:58;99038.06;;;-0.45;71.55
68456;BME280;55437;55.046;38.838;2023-02-12T06:00:25;99038.91;;;-0.35;71.24
68456;BME280;55437;55.046;38.838;2023-02-12T06:02:50;99042.25;;;-0.36;71.24
68456;BME280;55437;55.046;38.838;2023-02-12T06:05:17;99046.47;;;-0.43;71.15
68456;BME280;55437;55.046;38.838;2023-02-12T06:07:42;99056.56;;;-0.41;71.21
68456;BME280;55437;55.046;38.838;2023-02-12T06:10:08;99049.00;;;-0.40;70.83
68456;BME280;55437;55.046;38.838;2023-02-12T06:12:34;99049.00;;;-0.33;70.68
68456;BME280;55437;55.046;38.838;2023-02-12T06:15:04;99072.53;;;-0.45;70.92
68456;BME280;55437;55.046;38.838;2023-02-12T06:17:30;99073.38;;;-0.54;70.79
68456;BME280;55437;55.046;38.838;2023-02-12T06:19:57;99071.69;;;-0.47;71.35
68456;BME280;55437;55.046;38.838;2023-02-12T06:22:23;99098.59;;;-0.61;71.69
68456;BME280;55437;55.046;38.838;2023-02-12T06:24:48;99094.38;;;-0.47;71.37
68456;BME280;55437;55.046;38.838;2023-02-12T06:27:15;99107.84;;;-0.63;71.55
68456;BME280;55437;55.046;38.838;2023-02-12T06:29:40;99110.38;;;-0.54;71.61
68456;BME280;55437;55.046;38.838;2023-02-12T06:32:32;99120.44;;;-0.44;71.22
68456;BME280;55437;55.046;38.838;2023-02-12T06:34:58;99108.69;;;-0.45;71.22
68456;BME280;55437;55.046;38.838;2023-02-12T06:37:23;99132.22;;;-0.47;71.01
68456;BME280;55437;55.046;38.838;2023-02-12T06:39:49;99108.69;;;-0.45;70.52
68456;BME280;55437;55.046;38.838;2023-02-12T06:42:15;99135.59;;;-0.42;70.85
68456;BME280;55437;55.046;38.838;2023-02-12T06:44:40;99133.91;;;-0.36;70.14
68456;BME280;55437;55.046;38.838;2023-02-12T06:47:06;99143.16;;;-0.39;69.73
68456;BME280;55437;55.046;38.838;2023-02-12T06:49:32;99142.31;;;-0.32;69.82
68456;BME280;55437;55.046;38.838;2023-02-12T06:51:58;99154.09;;;-0.39;70.11
68456;BME280;55437;55.046;38.838;2023-02-12T06:54:24;99154.09;;;-0.31;69.90
68456;BME280;55437;55.046;38.838;2023-02-12T06:56:50;99153.25;;;-0.24;69.25
68456;BME280;55437;55.046;38.838;2023-02-12T06:59:16;99158.28;;;-0.24;69.27
68456;BME280;55437;55.046;38.838;2023-02-12T07:01:42;99178.44;;;-0.34;68.79
68456;BME280;55437;55.046;38.838;2023-02-12T07:04:09;99177.63;;;-0.41;68.89
68456;BME280;55437;55.046;38.838;2023-02-12T07:06:36;99187.72;;;-0.37;68.99
68456;BME280;55437;55.046;38.838;2023-02-12T07:09:03;99201.16;;;-0.31;69.05
68456;BME280;55437;55.046;38.838;2023-02-12T07:11:32;99197.78;;;-0.33;69.39
68456;BME280;55437;55.046;38.838;2023-02-12T07:14:17;99196.13;;;-0.18;69.16
68456;BME280;55437;55.046;38.838;2023-02-12T07:16:42;99202.03;;;-0.28;69.12
68456;BME280;55437;55.046;38.838;2023-02-12T07:19:11;99206.22;;;-0.21;69.83
68456;BME280;55437;55.046;38.838;2023-02-12T07:21:38;99209.59;;;-0.17;69.16
68456;BME280;55437;55.046;38.838;2023-02-12T07:24:03;99214.66;;;-0.16;69.43
68456;BME280;55437;55.046;38.838;2023-02-12T07:26:29;99223.06;;;-0.08;69.00
68456;BME280;55437;55.046;38.838;2023-02-12T07:28:56;99219.69;;;0.04;68.62
68456;BME280;55437;55.046;38.838;2023-02-12T07:31:24;99221.38;;;0.02;68.42
68456;BME280;55437;55.046;38.838;2023-02-12T07:33:54;99228.09;;;0.03;67.93
68456;BME280;55437;55.046;38.838;2023-02-12T07:36:20;99239.06;;;0.10;67.57
68456;BME280;55437;55.046;38.838;2023-02-12T07:38:46;99250.84;;;0.08;67.22
68456;BME280;55437;55.046;38.838;2023-02-12T07:41:20;99255.03;;;0.09;67.58
68456;BME280;55437;55.046;38.838;2023-02-12T07:43:47;99254.19;;;0.19;67.07
68456;BME280;55437;55.046;38.838;2023-02-12T07:46:25;99254.22;;;0.22;66.94
68456;BME280;55437;55.046;38.838;2023-02-12T07:48:58;99268.53;;;0.35;66.75
68456;BME280;55437;55.046;38.838;2023-02-12T07:51:25;99287.88;;;0.45;66.03
68456;BME280;55437;55.046;38.838;2023-02-12T07:53:51;99270.19;;;0.38;65.99
68456;BME280;55437;55.046;38.838;2023-02-12T07:56:20;99269.34;;;0.31;69.71
68456;BME280;55437;55.046;38.838;2023-02-12T07:58:48;99290.38;;;0.25;68.99
68456;BME280;55437;55.046;38.838;2023-02-12T08:01:21;99294.59;;;0.25;68.02
68456;BME280;55437;55.046;38.838;2023-02-12T08:03:48;99304.69;;;0.23;67.25
68456;BME280;55437;55.046;38.838;2023-02-12T08:06:19;99307.19;;;0.16;67.08
68456;BME280;55437;55.046;38.838;2023-02-12T08:08:46;99308.91;;;0.18;71.28
68456;BME280;55437;55.046;38.838;2023-02-12T08:11:13;99313.91;;;0.05;72.41
68456;BME280;55437;55.046;38.838;2023-02-12T08:13:41;99329.91;;;0.05;71.40
68456;BME280;55437;55.046;38.838;2023-02-12T08:16:16;99329.09;;;0.11;70.96
68456;BME280;55437;55.046;38.838;2023-02-12T08:18:42;99339.19;;;0.30;69.23
68456;BME280;55437;55.046;38.838;2023-02-12T08:21:11;99325.72;;;0.18;67.68
68456;BME280;55437;55.046;38.838;2023-02-12T08:23:37;99337.47;;;-0.04;66.79
68456;BME280;55437;55.046;38.838;2023-02-12T08:26:30;99345.84;;;-0.10;66.80
68456;BME280;55437;55.046;38.838;2023-02-12T08:29:06;99345.84;;;-0.10;67.44
68456;BME280;55437;55.046;38.838;2023-02-12T08:31:37;99343.31;;;-0.11;66.82
68456;BME280;55437;55.046;38.838;2023-02-12T08:34:04;99355.94;;;-0.08;66.43
68456;BME280;55437;55.046;38.838;2023-02-12T08:36:35;99355.94;;;-0.10;66.60
68456;BME280;55437;55.046;38.838;2023-02-12T08:39:02;99364.38;;;0.03;65.92
68456;BME280;55437;55.046;38.838;2023-02-12T08:41:28;99363.53;;;-0.04;65.33
68456;BME280;55437;55.046;38.838;2023-02-12T08:44:02;99372.00;;;0.11;65.36
68456;BME280;55437;55.046;38.838;2023-02-12T08:46:34;99374.53;;;0.20;64.67
68456;BME280;55437;55.046;38.838;2023-02-12T08:49:11;99410.75;;;0.32;63.73
68456;BME280;55437;55.046;38.838;2023-02-12T08:51:43;99392.22;;;0.20;63.05
68456;BME280;55437;55.046;38.838;2023-02-12T08:54:11;99391.31;;;0.07;63.08
68456;BME280;55437;55.046;38.838;2023-02-12T08:56:38;99402.31;;;0.26;63.00
68456;BME280;55437;55.046;38.838;2023-02-12T08:59:05;99410.75;;;0.37;62.62
68456;BME280;55437;55.046;38.838;2023-02-12T09:01:36;99413.28;;;0.42;62.41
68456;BME280;55437;55.046;38.838;2023-02-12T09:04:20;99423.38;;;0.42;62.65
68456;BME280;55437;55.046;38.838;2023-02-12T09:06:49;99416.66;;;0.51;62.93
68456;BME280;55437;55.046;38.838;2023-02-12T09:09:15;99417.47;;;0.32;63.03
68456;BME280;55437;55.046;38.838;2023-02-12T09:11:41;99426.72;;;0.28;63.52
68456;BME280;55437;55.046;38.838;2023-02-12T09:14:10;99430.03;;;0.09;64.60
68456;BME280;55437;55.046;38.838;2023-02-12T09:16:37;99441.81;;;0.09;64.41
68456;BME280;55437;55.046;38.838;2023-02-12T09:19:08;99439.28;;;0.09;64.21
68456;BME280;55437;55.046;38.838;2023-02-12T09:21:36;99440.97;;;0.14;63.98
68456;BME280;55437;55.046;38.838;2023-02-12T09:24:02;99433.41;;;0.13;63.49
68456;BME280;55437;55.046;38.838;2023-02-12T09:26:29;99451.91;;;0.10;63.51
68456;BME280;55437;55.046;38.838;2023-02-12T09:28:56;99451.06;;;0.10;63.55
68456;BME280;55437;55.046;38.838;2023-02-12T09:31:26;99457.75;;;-0.05;63.71
68456;BME280;55437;55.046;38.838;2023-02-12T09:34:03;99461.88;;;-0.20;63.72
68456;BME280;55437;55.046;38.838;2023-02-12T09:36:34;99464.38;;;-0.22;64.00
68456;BME280;55437;55.046;38.838;2023-02-12T09:39:02;99485.41;;;-0.26;63.69
68456;BME280;55437;55.046;38.838;2023-02-12T09:44:52;99486.28;;;-0.15;63.26
68456;BME280;55437;55.046;38.838;2023-02-12T09:47:47;99482.00;;;-0.31;63.46
68456;BME280;55437;55.046;38.838;2023-02-12T09:53:03;99482.06;;;-0.19;63.26
68456;BME280;55437;55.046;38.838;2023-02-12T09:55:32;99499.00;;;0.07;62.83
68456;BME280;55437;55.046;38.838;2023-02-12T09:58:09;99501.59;;;0.25;62.13
68456;BME280;55437;55.046;38.838;2023-02-12T10:01:15;99514.22;;;0.25;61.08
68456;BME280;55437;55.046;38.838;2023-02-12T10:03:42;99514.22;;;0.20;61.11
68456;BME280;55437;55.046;38.838;2023-02-12T10:06:19;99528.47;;;0.08;60.80
68456;BME280;55437;55.046;38.838;2023-02-12T10:11:46;99530.91;;;-0.12;62.62
68456;BME280;55437;55.046;38.838;2023-02-12T10:14:41;99540.16;;;-0.07;61.70
68456;BME280;55437;55.046;38.838;2023-02-12T10:20:43;99553.38;;;-0.43;61.48
68456;BME280;55437;55.046;38.838;2023-02-12T10:28:53;99564.31;;;-0.41;61.18
68456;BME280;55437;55.046;38.838;2023-02-12T10:31:31;99569.38;;;-0.41;61.16
68456;BME280;55437;55.046;38.838;2023-02-12T10:37:23;99579.38;;;-0.51;62.43
68456;BME280;55437;55.046;38.838;2023-02-12T10:40:31;99596.19;;;-0.50;62.41
68456;BME280;55437;55.046;38.838;2023-02-12T10:43:02;99582.75;;;-0.48;61.94
68456;BME280;55437;55.046;38.838;2023-02-12T10:45:37;99604.66;;;-0.44;61.45
68456;BME280;55437;55.046;38.838;2023-02-12T10:48:09;99599.44;;;-0.60;61.23
68456;BME280;55437;55.046;38.838;2023-02-12T10:53:44;99617.09;;;-0.63;61.86
68456;BME280;55437;55.046;38.838;2023-02-12T10:58:57;99620.44;;;-0.64;61.28
68456;BME280;55437;55.046;38.838;2023-02-12T11:04:27;99634.66;;;-0.69;61.39
68456;BME280;55437;55.046;38.838;2023-02-12T11:07:05;99634.69;;;-0.66;61.82
68456;BME280;55437;55.046;38.838;2023-02-12T11:09:39;99634.59;;;-0.77;61.71
68456;BME280;55437;55.046;38.838;2023-02-12T11:15:25;99646.28;;;-0.85;61.58
68456;BME280;55437;55.046;38.838;2023-02-12T11:20:48;99655.56;;;-0.80;62.35
68456;BME280;55437;55.046;38.838;2023-02-12T11:23:24;99677.59;;;-0.63;61.65
68456;BME280;55437;55.046;38.838;2023-02-12T11:29:23;99679.16;;;-0.72;60.76
68456;BME280;55437;55.046;38.838;2023-02-12T11:32:01;99685.91;;;-0.74;60.59
68456;BME280;55437;55.046;38.838;2023-02-12T11:34:27;99695.13;;;-0.74;60.97
68456;BME280;55437;55.046;38.838;2023-02-12T11:36:57;99707.66;;;-0.79;61.06
68456;BME280;55437;55.046;38.838;2023-02-12T11:39:32;99714.41;;;-0.78;60.82
68456;BME280;55437;55.046;38.838;2023-02-12T11:42:05;99713.38;;;-0.93;60.80
68456;BME280;55437;55.046;38.838;2023-02-12T11:44:50;99714.31;;;-0.84;60.67
68456;BME280;55437;55.046;38.838;2023-02-12T11:47:19;99716.00;;;-0.84;59.96
68456;BME280;55437;55.046;38.838;2023-02-12T11:49:53;99725.25;;;-0.86;60.28
68456;BME280;55437;55.046;38.838;2023-02-12T11:52:33;99721.94;;;-0.79;59.69
68456;BME280;55437;55.046;38.838;2023-02-12T11:55:03;99731.94;;;-0.88;59.12
68456;BME280;55437;55.046;38.838;2023-02-12T11:57:43;99742.06;;;-0.82;58.92
68456;BME280;55437;55.046;38.838;2023-02-12T12:03:17;99737.84;;;-0.86;58.63
68456;BME280;55437;55.046;38.838;2023-02-12T12:05:51;99746.09;;;-0.95;58.65
68456;BME280;55437;55.046;38.838;2023-02-12T12:08:25;99752.03;;;-0.91;58.64
68456;BME280;55437;55.046;38.838;2023-02-12T12:11:18;99763.56;;;-1.10;57.97
68456;BME280;55437;55.046;38.838;2023-02-12T12:13:58;99761.03;;;-1.12;58.40
68456;BME280;55437;55.046;38.838;2023-02-12T12:16:38;99769.66;;;-0.93;58.12
68456;BME280;55437;55.046;38.838;2023-02-12T12:22:41;99774.69;;;-0.93;57.31
68456;BME280;55437;55.046;38.838;2023-02-12T12:34:17;99803.09;;;-1.04;56.91
68456;BME280;55437;55.046;38.838;2023-02-12T12:53:06;99843.03;;;-0.73;57.02
68456;BME280;55437;55.046;38.838;2023-02-12T13:04:31;99871.09;;;-1.09;56.36
68456;BME280;55437;55.046;38.838;2023-02-12T13:07:41;99875.06;;;-1.20;56.32
68456;BME280;55437;55.046;38.838;2023-02-12T13:10:33;99887.34;;;-1.40;56.47
68456;BME280;55437;55.046;38.838;2023-02-12T13:13:19;99891.59;;;-1.37;56.21
68456;BME280;55437;55.046;38.838;2023-02-12T13:16:10;99888.13;;;-1.44;55.84
68456;BME280;55437;55.046;38.838;2023-02-12T13:19:07;99889.09;;;-1.37;56.34
68456;BME280;55437;55.046;38.838;2023-02-12T13:21:43;99909.94;;;-1.45;56.29
68456;BME280;55437;55.046;38.838;2023-02-12T13:27:11;99901.94;;;-1.22;55.85
68456;BME280;55437;55.046;38.838;2023-02-12T13:29:44;99921.06;;;-1.33;56.04
68456;BME280;55437;55.046;38.838;2023-02-12T13:32:15;99915.81;;;-1.44;56.43
68456;BME280;55437;55.046;38.838;2023-02-12T13:34:44;99927.53;;;-1.48;57.47
68456;BME280;55437;55.046;38.838;2023-02-12T13:37:22;99926.50;;;-1.59;56.78
68456;BME280;55437;55.046;38.838;2023-02-12T13:39:50;99931.56;;;-1.56;56.95
68456;BME280;55437;55.046;38.838;2023-02-12T13:42:39;99942.41;;;-1.60;56.70
68456;BME280;55437;55.046;38.838;2023-02-12T13:50:39;99961.66;;;-1.62;56.23
68456;BME280;55437;55.046;38.838;2023-02-12T13:53:21;99969.25;;;-1.60;56.72
68456;BME280;55437;55.046;38.838;2023-02-12T13:56:10;99965.66;;;-1.73;56.52
68456;BME280;55437;55.046;38.838;2023-02-12T13:58:50;99984.19;;;-1.68;56.69
68456;BME280;55437;55.046;38.838;2023-02-12T14:01:44;99981.94;;;-1.54;55.74
68456;BME280;55437;55.046;38.838;2023-02-12T14:04:34;99998.97;;;-1.85;57.94
68456;BME280;55437;55.046;38.838;2023-02-12T14:07:09;99997.22;;;-1.89;57.46
68456;BME280;55437;55.046;38.838;2023-02-12T14:09:38;100003.88;;;-1.91;57.25
68456;BME280;55437;55.046;38.838;2023-02-12T14:12:06;100011.34;;;-1.95;56.89
68456;BME280;55437;55.046;38.838;2023-02-12T14:14:37;100016.56;;;-1.86;56.49
68456;BME280;55437;55.046;38.838;2023-02-12T14:27:53;100042.16;;;-1.65;56.15
68456;BME280;55437;55.046;38.838;2023-02-12T14:30:25;100048.78;;;-1.68;56.96
68456;BME280;55437;55.046;38.838;2023-02-12T14:40:47;100060.47;;;-1.72;56.59
68456;BME280;55437;55.046;38.838;2023-02-12T14:43:36;100058.25;;;-1.57;56.08
68456;BME280;55437;55.046;38.838;2023-02-12T14:48:58;100073.81;;;-1.76;56.07
68456;BME280;55437;55.046;38.838;2023-02-12T14:51:59;100077.13;;;-1.77;56.33
68456;BME280;55437;55.046;38.838;2023-02-12T14:56:57;100077.47;;;-1.62;56.19
68456;BME280;55437;55.046;38.838;2023-02-12T14:59:27;100085.97;;;-1.55;56.00
68456;BME280;55437;55.046;38.838;2023-02-12T15:01:57;100087.72;;;-1.53;56.06
68456;BME280;55437;55.046;38.838;2023-02-12T15:04:27;100086.16;;;-1.48;56.31
68456;BME280;55437;55.046;38.838;2023-02-12T15:07:02;100092.91;;;-1.47;55.91
68456;BME280;55437;55.046;38.838;2023-02-12T15:10:02;100092.88;;;-1.48;56.26
68456;BME280;55437;55.046;38.838;2023-02-12T15:12:40;100095.41;;;-1.47;56.22
68456;BME280;55437;55.046;38.838;2023-02-12T15:18:03;100113.97;;;-1.41;55.96
68456;BME280;55437;55.046;38.838;2023-02-12T15:20:36;100127.94;;;-1.56;56.07
68456;BME280;55437;55.046;38.838;2023-02-12T15:25:55;100135.06;;;-1.75;56.73
68456;BME280;55437;55.046;38.838;2023-02-12T15:28:26;100132.47;;;-1.78;56.47
68456;BME280;55437;55.046;38.838;2023-02-12T15:30:59;100133.25;;;-1.83;56.56
68456;BME280;55437;55.046;38.838;2023-02-12T15:33:39;100136.53;;;-1.85;56.39
68456;BME280;55437;55.046;38.838;2023-02-12T15:36:09;100140.50;;;-1.95;56.61
68456;BME280;55437;55.046;38.838;2023-02-12T15:38:37;100142.09;;;-1.98;56.53
68456;BME280;55437;55.046;38.838;2023-02-12T15:41:06;100140.47;;;-1.96;56.86
68456;BME280;55437;55.046;38.838;2023-02-12T15:43:39;100152.94;;;-2.01;56.79
68456;BME280;55437;55.046;38.838;2023-02-12T15:46:17;100163.28;;;-1.89;56.87
68456;BME280;55437;55.046;38.838;2023-02-12T15:48:48;100166.53;;;-1.93;56.85